createdAt,value
2022-10-25T00:00:52.129Z,100989.31
2022-10-25T00:03:21.980Z,100983.25
2022-10-25T00:05:52.548Z,100987.31
2022-10-25T00:08:26.987Z,100985.28
2022-10-25T00:10:56.827Z,100990.53
2022-10-25T00:13:26.383Z,100984.88
2022-10-25T00:15:57.402Z,100973.53
2022-10-25T00:18:27.215Z,100977.59
2022-10-25T00:21:00.353Z,100971.91
2022-10-25T00:23:32.676Z,100969.09
2022-10-25T00:26:11.848Z,100978.38
2022-10-25T00:28:40.261Z,100973.13
2022-10-25T00:31:12.049Z,100989.31
2022-10-25T00:33:42.588Z,100976.38
2022-10-25T00:36:10.449Z,100978.41
2022-10-25T00:38:42.652Z,100972.31
2022-10-25T00:41:14.664Z,100982.84
2022-10-25T00:43:47.877Z,100979.19
2022-10-25T00:46:21.010Z,100976.78
2022-10-25T00:48:51.948Z,100973.53
2022-10-25T00:51:31.013Z,100961.38
2022-10-25T00:54:01.514Z,100969.88
2022-10-25T00:56:31.873Z,100967.06
2022-10-25T00:59:04.422Z,100969.09
2022-10-25T01:01:45.673Z,100960.97
2022-10-25T01:04:25.632Z,100965.03
2022-10-25T01:06:58.736Z,100967.84
2022-10-25T01:09:32.275Z,100973.13
2022-10-25T01:11:59.463Z,100969.47
2022-10-25T01:14:29.312Z,100971.09
2022-10-25T01:17:17.796Z,100969.47
2022-10-25T01:19:50.308Z,100977.59
2022-10-25T01:22:26.648Z,100979.63
2022-10-25T01:24:59.598Z,100968.66
2022-10-25T01:27:30.821Z,100971.09
2022-10-25T01:30:10.570Z,100967.44
2022-10-25T01:32:49.923Z,100978.38
2022-10-25T01:35:31.450Z,100986.09
2022-10-25T01:38:05.553Z,100981.22
2022-10-25T01:40:38.661Z,100975.94
2022-10-25T01:43:13.452Z,100985.28
2022-10-25T01:45:53.048Z,100976.78
2022-10-25T01:48:27.346Z,100969.88
2022-10-25T01:50:55.647Z,100967.47
2022-10-25T01:53:28.049Z,100957.75
2022-10-25T01:56:03.562Z,100954.91
2022-10-25T01:58:33.742Z,100960.19
2022-10-25T02:01:07.425Z,100954.91
2022-10-25T02:03:50.094Z,100961.00
2022-10-25T02:06:35.671Z,100942.75
2022-10-25T02:09:11.062Z,100949.63
2022-10-25T02:11:41.127Z,100957.75
2022-10-25T02:14:11.244Z,100958.97
2022-10-25T02:16:46.590Z,100983.63
2022-10-25T02:19:21.465Z,100990.94
2022-10-25T02:21:52.029Z,100996.63
2022-10-25T02:24:25.122Z,100997.44
2022-10-25T02:26:55.401Z,100997.41
2022-10-25T02:29:23.516Z,100996.97
2022-10-25T02:31:50.870Z,100999.03
2022-10-25T02:34:18.378Z,100989.28
2022-10-25T02:36:53.203Z,100988.47
2022-10-25T02:39:27.682Z,100987.66
2022-10-25T02:41:57.655Z,100978.34
2022-10-25T02:44:28.196Z,100971.47
2022-10-25T02:46:58.324Z,100970.66
2022-10-25T02:49:37.995Z,100968.22
2022-10-25T02:52:10.485Z,100965.00
2022-10-25T02:54:39.958Z,100968.22
2022-10-25T02:57:07.186Z,100967.03
2022-10-25T02:59:36.614Z,100968.22
2022-10-25T03:02:09.757Z,100969.88
2022-10-25T03:04:42.163Z,100959.34
2022-10-25T03:07:09.503Z,100959.34
2022-10-25T03:09:36.589Z,100951.22
2022-10-25T03:12:06.097Z,100941.91
2022-10-25T03:14:36.190Z,100949.19
2022-10-25T03:17:08.328Z,100949.19
2022-10-25T03:19:38.242Z,100954.09
2022-10-25T03:22:05.406Z,100957.31
2022-10-25T03:24:40.475Z,100960.94
2022-10-25T03:27:12.724Z,100967.41
2022-10-25T03:29:43.815Z,100967.84
2022-10-25T03:32:10.934Z,100962.56
2022-10-25T03:34:40.552Z,100969.44
2022-10-25T03:37:10.138Z,100974.69
2022-10-25T03:39:37.434Z,100970.66
2022-10-25T03:42:09.811Z,100971.88
2022-10-25T03:44:39.792Z,100974.31
2022-10-25T03:47:09.837Z,100969.03
2022-10-25T03:49:37.136Z,100977.13
2022-10-25T03:52:06.809Z,100986.88
2022-10-25T03:54:37.735Z,100988.47
2022-10-25T03:57:08.920Z,100986.03
2022-10-25T03:59:36.063Z,100989.28
2022-10-25T04:02:09.318Z,100987.66
2022-10-25T04:04:36.566Z,100980.34
2022-10-25T04:07:07.728Z,100987.66
2022-10-25T04:09:34.881Z,100994.13
2022-10-25T04:12:04.756Z,100995.75
2022-10-25T04:14:34.847Z,100998.19
2022-10-25T04:17:07.145Z,100995.75
2022-10-25T04:19:39.251Z,100990.88
2022-10-25T04:22:06.456Z,101001.41
2022-10-25T04:24:33.529Z,100994.13
2022-10-25T04:27:03.545Z,100999.81
2022-10-25T04:29:33.582Z,101004.63
2022-10-25T04:32:00.872Z,101013.16
2022-10-25T04:34:28.000Z,101024.50
2022-10-25T04:36:55.166Z,101027.28
2022-10-25T04:39:29.993Z,101033.81
2022-10-25T04:41:57.910Z,101033.81
2022-10-25T04:44:29.272Z,101039.06
2022-10-25T04:46:58.683Z,101044.72
2022-10-25T04:49:28.727Z,101040.28
2022-10-25T04:51:55.893Z,101030.97
2022-10-25T04:54:31.439Z,101026.09
2022-10-25T04:57:01.931Z,101033.38
2022-10-25T04:59:29.111Z,101039.47
2022-10-25T05:01:57.874Z,101042.69
2022-10-25T05:04:32.388Z,101048.34
2022-10-25T05:07:05.141Z,101049.16
2022-10-25T05:09:36.006Z,101053.22
2022-10-25T05:12:03.309Z,101049.97
2022-10-25T05:14:30.347Z,101062.16
2022-10-25T05:16:59.897Z,101061.72
2022-10-25T05:19:30.502Z,101060.53
2022-10-25T05:21:57.930Z,101058.50
2022-10-25T05:24:26.119Z,101064.56
2022-10-25T05:26:59.886Z,101052.41
2022-10-25T05:29:32.836Z,101067.81
2022-10-25T05:32:06.321Z,101066.16
2022-10-25T05:34:33.811Z,101071.84
2022-10-25T05:37:03.552Z,101075.88
2022-10-25T05:39:39.031Z,101088.91
2022-10-25T05:42:08.443Z,101092.09
2022-10-25T05:44:38.593Z,101088.88
2022-10-25T05:47:07.066Z,101083.63
2022-10-25T05:49:40.404Z,101076.78
2022-10-25T05:52:13.710Z,101084.47
2022-10-25T05:54:44.392Z,101077.59
2022-10-25T05:57:12.235Z,101084.50
2022-10-25T05:59:43.159Z,101082.88
2022-10-25T06:02:16.514Z,101088.13
2022-10-25T06:04:53.180Z,101088.13
2022-10-25T06:07:21.320Z,101093.41
2022-10-25T06:09:51.860Z,101088.50
2022-10-25T06:12:25.283Z,101104.31
2022-10-25T06:14:58.977Z,101106.75
2022-10-25T06:17:32.111Z,101110.00
2022-10-25T06:20:02.373Z,101104.38
2022-10-25T06:22:32.098Z,101106.00
2022-10-25T06:25:20.514Z,101110.44
2022-10-25T06:27:53.983Z,101127.81
2022-10-25T06:30:21.842Z,101143.66
2022-10-25T06:32:54.638Z,101148.91
2022-10-25T06:35:29.462Z,101150.94
2022-10-25T06:38:03.042Z,101148.53
2022-10-25T06:40:39.302Z,101146.91
2022-10-25T06:43:12.524Z,101158.63
2022-10-25T06:45:44.212Z,101151.78
2022-10-25T06:48:14.506Z,101155.03
2022-10-25T06:50:49.983Z,101166.84
2022-10-25T06:53:22.593Z,101176.56
2022-10-25T06:56:04.284Z,101180.53
2022-10-25T06:58:38.119Z,101177.31
2022-10-25T07:01:10.088Z,101169.63
2022-10-25T07:03:43.859Z,101174.91
2022-10-25T07:06:12.804Z,101183.78
2022-10-25T07:08:48.092Z,101191.88
2022-10-25T07:11:22.130Z,101196.81
2022-10-25T07:13:49.752Z,101203.28
2022-10-25T07:16:18.079Z,101202.41
2022-10-25T07:18:49.583Z,101193.94
2022-10-25T07:21:21.373Z,101194.00
2022-10-25T07:23:53.415Z,101199.28
2022-10-25T07:26:30.847Z,101203.34
2022-10-25T07:29:06.039Z,101203.72
2022-10-25T07:31:38.431Z,101217.91
2022-10-25T07:34:11.726Z,101217.91
2022-10-25T07:36:48.685Z,101222.78
2022-10-25T07:39:22.046Z,101221.16
2022-10-25T07:42:04.452Z,101222.78
2022-10-25T07:44:41.612Z,101224.72
2022-10-25T07:47:12.715Z,101228.03
2022-10-25T07:49:42.610Z,101236.97
2022-10-25T07:52:14.766Z,101237.78
2022-10-25T07:54:47.403Z,101234.94
2022-10-25T07:57:19.652Z,101239.81
2022-10-25T07:59:51.848Z,101240.63
2022-10-25T08:02:26.288Z,101243.88
2022-10-25T08:05:06.206Z,101266.16
2022-10-25T08:07:36.938Z,101265.69
2022-10-25T08:10:18.146Z,101258.44
2022-10-25T08:12:51.223Z,101261.31
2022-10-25T08:15:27.455Z,101267.38
2022-10-25T08:18:00.435Z,101271.47
2022-10-25T08:21:00.143Z,101262.13
2022-10-25T08:23:20.975Z,101259.28
2022-10-25T08:25:55.913Z,101251.59
2022-10-25T08:28:31.377Z,101258.03
2022-10-25T08:31:00.953Z,101258.44
2022-10-25T08:33:36.650Z,101270.19
2022-10-25T08:36:06.922Z,101264.09
2022-10-25T08:38:35.551Z,101262.09
2022-10-25T08:41:15.297Z,101258.41
2022-10-25T08:43:52.855Z,101256.84
2022-10-25T08:46:29.320Z,101265.78
2022-10-25T08:49:10.005Z,101265.78
2022-10-25T08:51:39.933Z,101262.91
2022-10-25T08:54:30.278Z,101275.91
2022-10-25T08:57:21.699Z,101272.63
2022-10-25T09:00:17.425Z,101276.31
2022-10-25T09:02:58.091Z,101272.63
2022-10-25T09:05:57.540Z,101283.56
2022-10-25T09:08:43.793Z,101280.72
2022-10-25T09:11:13.486Z,101288.47
2022-10-25T09:13:54.146Z,101290.03
2022-10-25T09:17:01.462Z,101292.94
2022-10-25T09:19:34.266Z,101280.34
2022-10-25T09:22:13.936Z,101290.91
2022-10-25T09:24:50.160Z,101286.88
2022-10-25T09:27:30.375Z,101284.81
2022-10-25T09:30:10.725Z,101292.94
2022-10-25T09:33:10.624Z,101300.22
2022-10-25T09:35:56.199Z,101307.94
2022-10-25T09:38:54.787Z,101311.19
2022-10-25T09:41:38.702Z,101311.59
2022-10-25T09:44:14.349Z,101316.47
2022-10-25T09:46:52.516Z,101315.66
2022-10-25T09:49:44.228Z,101314.47
2022-10-25T09:52:17.642Z,101321.75
2022-10-25T09:54:48.012Z,101330.28
2022-10-25T09:57:27.018Z,101328.59
2022-10-25T10:00:02.526Z,101331.06
2022-10-25T10:02:42.355Z,101333.09
2022-10-25T10:05:20.729Z,101334.72
2022-10-25T10:08:02.239Z,101335.13
2022-10-25T10:10:37.681Z,101333.91
2022-10-25T10:13:23.474Z,101327.00
2022-10-25T10:16:00.640Z,101335.50
2022-10-25T10:18:28.339Z,101335.53
2022-10-25T10:20:55.623Z,101335.53
2022-10-25T10:23:38.719Z,101331.44
2022-10-25T10:26:16.129Z,101330.25
2022-10-25T10:28:52.124Z,101327.00
2022-10-25T10:31:19.987Z,101329.47
2022-10-25T10:33:51.722Z,101325.00
2022-10-25T10:36:29.484Z,101311.63
2022-10-25T10:39:19.220Z,101308.78
2022-10-25T10:42:03.523Z,101308.78
2022-10-25T10:44:34.990Z,101305.53
2022-10-25T10:47:10.283Z,101309.16
2022-10-25T10:49:42.529Z,101309.63
2022-10-25T10:52:28.756Z,101309.59
2022-10-25T10:55:01.232Z,101312.00
2022-10-25T10:57:36.115Z,101312.44
2022-10-25T11:00:09.468Z,101311.63
2022-10-25T11:02:37.014Z,101300.66
2022-10-25T11:05:18.304Z,101304.72
2022-10-25T11:07:46.073Z,101302.69
2022-10-25T11:10:27.865Z,101305.53
2022-10-25T11:13:09.407Z,101303.47
2022-10-25T11:16:00.085Z,101308.34
2022-10-25T11:18:49.965Z,101309.16
2022-10-25T11:21:44.583Z,101293.34
2022-10-25T11:24:29.047Z,101294.97
2022-10-25T11:27:17.502Z,101298.66
2022-10-25T11:30:10.916Z,101294.97
2022-10-25T11:33:04.363Z,101288.09
2022-10-25T11:35:43.970Z,101282.84
2022-10-25T11:38:34.332Z,101285.66
2022-10-25T11:41:12.338Z,101282.41
2022-10-25T11:43:42.667Z,101275.94
2022-10-25T11:46:33.260Z,101281.63
2022-10-25T11:49:15.618Z,101267.06
2022-10-25T11:51:48.597Z,101277.97
2022-10-25T11:54:18.748Z,101269.47
2022-10-25T11:56:57.055Z,101273.91
2022-10-25T11:59:44.551Z,101266.66
2022-10-25T12:02:14.743Z,101261.31
2022-10-25T12:05:06.196Z,101269.47
2022-10-25T12:07:50.931Z,101262.97
2022-10-25T12:10:23.537Z,101260.91
2022-10-25T12:12:57.616Z,101269.44
2022-10-25T12:15:51.590Z,101258.91
2022-10-25T12:18:34.336Z,101257.25
2022-10-25T12:21:05.630Z,101261.72
2022-10-25T12:23:43.682Z,101259.31
2022-10-25T12:26:28.871Z,101239.03
2022-10-25T12:29:07.048Z,101250.00
2022-10-25T12:31:50.433Z,101249.56
2022-10-25T12:34:38.846Z,101252.41
2022-10-25T12:37:31.570Z,101249.56
2022-10-25T12:40:09.927Z,101247.13
2022-10-25T12:42:51.493Z,101244.69
2022-10-25T12:45:37.384Z,101247.53
2022-10-25T12:48:16.759Z,101243.88
2022-10-25T12:51:12.974Z,101243.53
2022-10-25T12:53:56.836Z,101233.34
2022-10-25T12:56:52.937Z,101233.34
2022-10-25T12:59:44.234Z,101235.78
2022-10-25T13:02:41.726Z,101232.97
2022-10-25T13:05:38.957Z,101232.53
2022-10-25T13:08:10.368Z,101222.41
2022-10-25T13:10:42.589Z,101231.75
2022-10-25T13:13:21.544Z,101226.84
2022-10-25T13:15:54.200Z,101223.63
2022-10-25T13:18:32.734Z,101221.59
2022-10-25T13:21:10.052Z,101216.31
2022-10-25T13:23:49.667Z,101216.72
2022-10-25T13:26:20.164Z,101218.75
2022-10-25T13:28:57.469Z,101215.91
2022-10-25T13:31:44.077Z,101209.41
2022-10-25T13:34:16.792Z,101209.81
2022-10-25T13:36:54.548Z,101217.53
2022-10-25T13:39:25.036Z,101217.53
2022-10-25T13:41:55.845Z,101215.06
2022-10-25T13:44:26.941Z,101214.28
2022-10-25T13:46:57.601Z,101219.16
2022-10-25T13:49:36.771Z,101216.66
2022-10-25T13:52:11.084Z,101210.22
2022-10-25T13:54:41.111Z,101216.69
2022-10-25T13:57:27.182Z,101213.03
2022-10-25T14:00:03.147Z,101206.56
2022-10-25T14:03:06.870Z,101212.22
2022-10-25T14:05:52.474Z,101213.84
2022-10-25T14:08:26.655Z,101214.31
2022-10-25T14:11:17.138Z,101211.81
2022-10-25T14:13:55.130Z,101201.28
2022-10-25T14:16:42.947Z,101202.91
2022-10-25T14:19:22.268Z,101202.88
2022-10-25T14:22:00.293Z,101196.78
2022-10-25T14:24:35.746Z,101200.81
2022-10-25T14:27:26.103Z,101201.56
2022-10-25T14:30:14.134Z,101196.34
2022-10-25T14:33:01.193Z,101201.94
2022-10-25T14:35:36.347Z,101197.78
2022-10-25T14:38:15.104Z,101193.69
2022-10-25T14:40:59.097Z,101189.56
2022-10-25T14:43:42.008Z,101196.25
2022-10-25T14:46:24.264Z,101194.25
2022-10-25T14:49:03.878Z,101192.66
2022-10-25T14:51:50.099Z,101192.88
2022-10-25T14:54:38.198Z,101190.69
2022-10-25T14:57:13.967Z,101190.41
2022-10-25T15:02:30.562Z,101194.41
2022-10-25T15:04:59.232Z,101193.81
2022-10-25T15:07:44.252Z,101197.44
2022-10-25T15:10:30.593Z,101196.34
2022-10-25T15:13:14.263Z,101190.19
2022-10-25T15:15:52.811Z,101186.63
2022-10-25T15:18:47.861Z,101178.56
2022-10-25T15:21:24.675Z,101182.91
2022-10-25T15:24:10.135Z,101181.13
2022-10-25T15:26:57.081Z,101186.75
2022-10-25T15:32:16.016Z,101185.88
2022-10-25T15:34:52.606Z,101184.44
2022-10-25T15:37:30.211Z,101190.13
2022-10-25T15:40:05.375Z,101192.28
2022-10-25T15:42:39.392Z,101194.53
2022-10-25T15:45:12.346Z,101204.16
2022-10-25T15:47:42.547Z,101194.69
2022-10-25T15:50:15.756Z,101193.28
2022-10-25T15:52:43.703Z,101196.88
2022-10-25T15:55:22.256Z,101198.28
2022-10-25T15:57:57.672Z,101193.13
2022-10-25T16:00:31.249Z,101198.88
2022-10-25T16:03:02.744Z,101199.03
2022-10-25T16:05:37.179Z,101204.22
2022-10-25T16:08:06.794Z,101197.59
2022-10-25T16:10:42.602Z,101199.78
2022-10-25T16:13:15.870Z,101205.09
2022-10-25T16:15:46.988Z,101206.13
2022-10-25T16:18:20.174Z,101205.84
2022-10-25T16:20:51.750Z,101209.91
2022-10-25T16:23:25.065Z,101201.78
2022-10-25T16:25:56.315Z,101211.28
2022-10-25T16:28:29.896Z,101206.66
2022-10-25T16:30:58.035Z,101214.25
2022-10-25T16:33:27.365Z,101217.84
2022-10-25T16:35:57.811Z,101212.75
2022-10-25T16:38:29.053Z,101214.84
2022-10-25T16:40:57.791Z,101218.91
2022-10-25T16:43:28.242Z,101217.69
2022-10-25T16:45:56.549Z,101220.66
2022-10-25T16:48:29.358Z,101221.06
2022-10-25T16:51:00.267Z,101225.13
2022-10-25T16:53:28.029Z,101221.91
2022-10-25T16:56:01.250Z,101216.09
2022-10-25T16:58:34.963Z,101226.88
2022-10-25T17:01:06.378Z,101230.94
2022-10-25T17:03:40.466Z,101236.63
2022-10-25T17:06:28.833Z,101239.84
2022-10-25T17:09:02.388Z,101243.44
2022-10-25T17:11:34.017Z,101236.44
2022-10-25T17:14:02.362Z,101239.50
2022-10-25T17:16:32.431Z,101243.88
2022-10-25T17:19:06.861Z,101238.25
2022-10-25T17:21:40.568Z,101245.47
2022-10-25T17:24:09.959Z,101253.19
2022-10-25T17:26:38.617Z,101247.00
2022-10-25T17:29:08.754Z,101245.78
2022-10-25T17:31:36.483Z,101249.66
2022-10-25T17:34:10.292Z,101258.75
2022-10-25T17:36:38.323Z,101266.78
2022-10-25T17:39:12.313Z,101276.19
2022-10-25T17:41:42.275Z,101277.72
2022-10-25T17:44:16.165Z,101270.03
2022-10-25T17:46:46.317Z,101273.97
2022-10-25T17:49:17.073Z,101276.22
2022-10-25T17:51:49.982Z,101277.38
2022-10-25T17:54:20.279Z,101271.78
2022-10-25T17:56:50.386Z,101277.88
2022-10-25T17:59:17.880Z,101273.00
2022-10-25T18:01:50.783Z,101282.31
2022-10-25T18:04:24.641Z,101271.03
2022-10-25T18:06:55.982Z,101287.28
2022-10-25T18:09:28.191Z,101299.06
2022-10-25T18:12:01.564Z,101290.47
2022-10-25T18:14:33.562Z,101293.19
2022-10-25T18:17:03.930Z,101299.06
2022-10-25T18:19:31.666Z,101301.75
2022-10-25T18:22:04.962Z,101297.31
2022-10-25T18:24:35.701Z,101303.53
2022-10-25T18:27:03.433Z,101295.03
2022-10-25T18:29:36.247Z,101297.44
2022-10-25T18:32:06.852Z,101299.91
2022-10-25T18:34:34.390Z,101300.69
2022-10-25T18:37:07.994Z,101298.72
2022-10-25T18:39:35.480Z,101291.72
2022-10-25T18:42:06.867Z,101286.06
2022-10-25T18:44:34.444Z,101285.28
2022-10-25T18:47:04.570Z,101290.94
2022-10-25T18:49:33.079Z,101296.69
2022-10-25T18:52:03.120Z,101300.69
2022-10-25T18:54:30.581Z,101307.66
2022-10-25T18:57:03.708Z,101303.63
2022-10-25T18:59:31.530Z,101308.09
2022-10-25T19:02:02.449Z,101302.44
2022-10-25T19:04:33.085Z,101294.66
2022-10-25T19:07:00.824Z,101303.66
2022-10-25T19:09:33.646Z,101311.78
2022-10-25T19:12:04.271Z,101304.84
2022-10-25T19:14:31.916Z,101312.16
2022-10-25T19:17:02.349Z,101310.16
2022-10-25T19:19:29.765Z,101306.94
2022-10-25T19:21:58.500Z,101307.28
2022-10-25T19:24:26.113Z,101307.75
2022-10-25T19:26:54.342Z,101299.19
2022-10-25T19:29:26.052Z,101301.72
2022-10-25T19:31:57.924Z,101294.34
2022-10-25T19:34:28.367Z,101305.69
2022-10-25T19:36:56.770Z,101297.56
2022-10-25T19:39:27.728Z,101296.97
2022-10-25T19:41:58.890Z,101303.66
2022-10-25T19:44:29.348Z,101303.28
2022-10-25T19:47:02.593Z,101307.34
2022-10-25T19:49:32.613Z,101309.34
2022-10-25T19:52:01.219Z,101311.44
2022-10-25T19:54:29.105Z,101309.81
2022-10-25T19:56:56.971Z,101306.97
2022-10-25T19:59:26.971Z,101309.41
2022-10-25T20:01:55.094Z,101312.59
2022-10-25T20:04:25.412Z,101309.41
2022-10-25T20:06:57.349Z,101311.44
2022-10-25T20:09:28.025Z,101312.59
2022-10-25T20:11:58.765Z,101319.94
2022-10-25T20:14:30.910Z,101330.09
2022-10-25T20:16:58.484Z,101319.97
2022-10-25T20:19:26.239Z,101317.97
2022-10-25T20:21:54.122Z,101319.16
2022-10-25T20:24:30.508Z,101327.31
2022-10-25T20:27:02.256Z,101330.97
2022-10-25T20:29:32.836Z,101336.25
2022-10-25T20:32:03.313Z,101337.47
2022-10-25T20:34:30.745Z,101328.50
2022-10-25T20:37:03.842Z,101322.81
2022-10-25T20:39:31.491Z,101333.00
2022-10-25T20:41:59.233Z,101337.06
2022-10-25T20:44:29.705Z,101335.03
2022-10-25T20:46:57.160Z,101322.81
2022-10-25T20:49:24.738Z,101326.09
2022-10-25T20:51:53.236Z,101335.00
2022-10-25T20:54:20.970Z,101328.97
2022-10-25T20:56:51.400Z,101323.22
2022-10-25T20:59:21.561Z,101324.84
2022-10-25T21:01:51.649Z,101328.50
2022-10-25T21:04:25.922Z,101331.34
2022-10-25T21:07:04.200Z,101330.13
2022-10-25T21:09:34.562Z,101325.66
2022-10-25T21:12:06.106Z,101327.28
2022-10-25T21:14:36.547Z,101333.00
2022-10-25T21:17:04.172Z,101331.34
2022-10-25T21:19:34.018Z,101331.75
2022-10-25T21:22:04.566Z,101334.63
2022-10-25T21:24:37.685Z,101347.22
2022-10-25T21:27:10.040Z,101347.66
2022-10-25T21:29:39.925Z,101347.25
2022-10-25T21:32:11.771Z,101342.38
2022-10-25T21:34:45.009Z,101345.59
2022-10-25T21:37:16.185Z,101353.28
2022-10-25T21:39:46.133Z,101355.38
2022-10-25T21:42:16.177Z,101358.25
2022-10-25T21:44:43.745Z,101356.59
2022-10-25T21:47:11.207Z,101361.88
2022-10-25T21:49:38.822Z,101356.97
2022-10-25T21:52:11.241Z,101354.97
2022-10-25T21:54:38.750Z,101356.19
2022-10-25T21:57:06.287Z,101354.56
2022-10-25T21:59:36.091Z,101340.34
2022-10-25T22:02:06.729Z,101339.16
2022-10-25T22:04:37.582Z,101344.41
2022-10-25T22:07:07.797Z,101345.22
2022-10-25T22:09:35.187Z,101355.38
2022-10-25T22:12:05.470Z,101363.91
2022-10-25T22:14:32.778Z,101367.56
2022-10-25T22:17:06.229Z,101369.16
2022-10-25T22:19:35.681Z,101365.94
2022-10-25T22:22:03.286Z,101361.47
2022-10-25T22:24:33.747Z,101366.72
2022-10-25T22:27:01.603Z,101371.66
2022-10-25T22:29:29.241Z,101372.47
2022-10-25T22:31:59.586Z,101377.31
2022-10-25T22:34:28.717Z,101375.31
2022-10-25T22:36:56.224Z,101361.06
2022-10-25T22:39:26.287Z,101353.75
2022-10-25T22:41:54.833Z,101361.50
2022-10-25T22:44:27.476Z,101362.31
2022-10-25T22:46:57.749Z,101353.75
2022-10-25T22:49:27.699Z,101364.72
2022-10-25T22:52:00.538Z,101362.31
2022-10-25T22:54:28.955Z,101366.78
2022-10-25T22:56:58.789Z,101370.44
2022-10-25T22:59:26.752Z,101370.47
2022-10-25T23:01:56.710Z,101372.88
2022-10-25T23:04:24.312Z,101370.06
2022-10-25T23:06:54.296Z,101386.31
2022-10-25T23:09:24.221Z,101388.72
2022-10-25T23:11:55.043Z,101381.81
2022-10-25T23:14:25.070Z,101384.69
2022-10-25T23:16:57.239Z,101392.78
2022-10-25T23:19:26.975Z,101392.81
2022-10-25T23:22:00.297Z,101390.34
2022-10-25T23:24:30.364Z,101392.38
2022-10-25T23:27:00.350Z,101390.38
2022-10-25T23:29:32.657Z,101387.16
2022-10-25T23:32:02.568Z,101388.34
2022-10-25T23:34:33.506Z,101385.09
2022-10-25T23:37:05.023Z,101384.66
2022-10-25T23:39:35.241Z,101384.25
2022-10-25T23:42:04.348Z,101374.94
2022-10-25T23:44:36.716Z,101378.56
2022-10-25T23:47:06.898Z,101374.50
2022-10-25T23:49:34.468Z,101378.16
2022-10-25T23:52:02.025Z,101378.59
2022-10-25T23:54:35.225Z,101391.19
2022-10-25T23:57:05.418Z,101376.97
2022-10-25T23:59:35.475Z,101388.34
